Time;durP1;ratioP1;P1;durP2;ratioP2;P2;SDS_P1;SDS_P2;PMS_P1;PMS_P2;Temp;Humidity;BMP_temperature;BMP_pressure;BME280_temperature;BME280_humidity;BME280_pressure;Samples;Min_cycle;Max_cycle;Signal;HPM_P1;HPM_P2
2024/01/23 00:02:00;;;;;;;25.90;2.95;;;;;;;;;;4998685;28;98735;-72
2024/01/23 00:04:26;;;;;;;28.27;3.80;;;;;;;;;;4999519;28;99517;-72
2024/01/23 00:06:53;;;;;;;30.17;4.28;;;;;;;;;;4986680;28;99689;-72
2024/01/23 00:09:19;;;;;;;23.05;3.25;;;;;;;;;;4997296;28;98645;-72
2024/01/23 00:11:46;;;;;;;20.48;3.20;;;;;;;;;;4997641;28;99519;-72
2024/01/23 00:14:12;;;;;;;32.30;3.72;;;;;;;;;;4997925;28;98529;-72
2024/01/23 00:16:39;;;;;;;26.55;3.65;;;;;;;;;;4996508;28;99497;-72
2024/01/23 00:19:05;;;;;;;28.73;4.63;;;;;;;;;;4997619;28;99536;-72
2024/01/23 00:21:31;;;;;;;18.38;3.20;;;;;;;;;;4997802;28;97917;-72
2024/01/23 00:23:58;;;;;;;30.70;5.97;;;;;;;;;;4991980;28;100325;-72
2024/01/23 00:26:24;;;;;;;25.05;3.63;;;;;;;;;;4993835;28;99846;-72
2024/01/23 00:28:51;;;;;;;28.08;3.50;;;;;;;;;;4993149;28;99325;-72
2024/01/23 00:31:17;;;;;;;32.13;4.80;;;;;;;;;;5002392;28;100451;-72
2024/01/23 00:33:43;;;;;;;26.67;4.10;;;;;;;;;;4996029;28;98648;-72
2024/01/23 00:36:10;;;;;;;24.88;4.47;;;;;;;;;;4994922;28;99365;-72
2024/01/23 00:38:36;;;;;;;27.65;3.67;;;;;;;;;;4997085;28;99664;-72
2024/01/23 00:41:03;;;;;;;34.15;4.68;;;;;;;;;;4996121;28;98657;-72
2024/01/23 00:43:30;;;;;;;35.65;3.85;;;;;;;;;;4996751;28;99205;-72
2024/01/23 00:45:56;;;;;;;26.45;4.05;;;;;;;;;;4998723;28;99045;-72
2024/01/23 00:48:22;;;;;;;30.02;3.92;;;;;;;;;;5026570;27;98670;-72
2024/01/23 00:50:49;;;;;;;31.00;3.72;;;;;;;;;;4995828;28;99572;-72
2024/01/23 00:53:15;;;;;;;26.98;3.95;;;;;;;;;;4999601;28;100269;-72
2024/01/23 00:55:41;;;;;;;26.30;4.13;;;;;;;;;;4997963;28;100025;-72
2024/01/23 00:58:08;;;;;;;33.50;5.03;;;;;;;;;;4994054;28;99456;-72
2024/01/23 01:00:35;;;;;;;21.95;3.90;;;;;;;;;;4993512;28;98624;-72
2024/01/23 01:03:02;;;;;;;25.00;4.40;;;;;;;;;;4994009;28;99238;-69
2024/01/23 01:05:28;;;;;;;32.60;3.92;;;;;;;;;;4997249;28;100367;-70
2024/01/23 01:07:55;;;;;;;31.77;4.40;;;;;;;;;;4996690;28;99683;-70
2024/01/23 01:10:23;;;;;;;31.05;4.72;;;;;;;;;;4998503;28;100301;-70
2024/01/23 01:12:49;;;;;;;26.08;4.65;;;;;;;;;;4993905;28;99461;-69
2024/01/23 01:15:15;;;;;;;19.13;3.25;;;;;;;;;;5002008;28;98859;-70
2024/01/23 01:17:42;;;;;;;27.45;4.07;;;;;;;;;;4999384;28;100213;-70
2024/01/23 01:20:08;;;;;;;24.73;4.03;;;;;;;;;;4998744;28;98685;-70
2024/01/23 01:22:35;;;;;;;29.25;4.05;;;;;;;;;;5000158;28;99153;-69
2024/01/23 01:25:01;;;;;;;27.83;3.53;;;;;;;;;;4999803;28;99513;-69
2024/01/23 01:27:28;;;;;;;27.27;3.30;;;;;;;;;;4992500;28;98512;-70
2024/01/23 01:29:54;;;;;;;29.15;4.07;;;;;;;;;;4996772;28;99423;-69
2024/01/23 01:32:21;;;;;;;18.58;3.20;;;;;;;;;;4995355;28;99654;-70
2024/01/23 01:34:47;;;;;;;21.95;3.80;;;;;;;;;;4997489;28;97809;-69
2024/01/23 01:37:14;;;;;;;19.48;3.65;;;;;;;;;;5002164;28;98709;-70
2024/01/23 01:39:40;;;;;;;18.13;3.38;;;;;;;;;;4999640;28;98581;-70
2024/01/23 01:42:06;;;;;;;26.45;4.18;;;;;;;;;;4993180;28;99435;-70
2024/01/23 01:44:33;;;;;;;27.40;4.05;;;;;;;;;;4995738;28;99806;-70
2024/01/23 01:47:00;;;;;;;29.17;4.97;;;;;;;;;;4993714;28;98527;-69
2024/01/23 01:49:26;;;;;;;22.92;3.90;;;;;;;;;;5000650;28;99257;-70
2024/01/23 01:51:53;;;;;;;28.23;4.28;;;;;;;;;;4994589;28;99576;-70
2024/01/23 01:54:20;;;;;;;33.88;3.85;;;;;;;;;;4998389;28;98796;-69
2024/01/23 01:56:47;;;;;;;18.80;3.15;;;;;;;;;;4995603;28;99591;-70
2024/01/23 01:59:13;;;;;;;25.77;3.72;;;;;;;;;;4997264;28;98765;-70
2024/01/23 02:01:40;;;;;;;25.15;3.65;;;;;;;;;;4996990;28;98785;-69
2024/01/23 02:04:06;;;;;;;21.55;3.47;;;;;;;;;;4991556;28;100096;-69
2024/01/23 02:06:34;;;;;;;27.38;4.25;;;;;;;;;;4993894;28;99247;-71
2024/01/23 02:09:00;;;;;;;29.08;3.83;;;;;;;;;;4994616;28;101142;-69
2024/01/23 02:11:27;;;;;;;26.85;3.55;;;;;;;;;;4997577;28;99939;-70
2024/01/23 02:13:53;;;;;;;16.65;2.72;;;;;;;;;;4995310;28;98862;-71
2024/01/23 02:16:20;;;;;;;22.65;3.75;;;;;;;;;;4995553;28;99177;-71
2024/01/23 02:18:47;;;;;;;24.08;3.58;;;;;;;;;;5000021;28;99541;-71
2024/01/23 02:21:14;;;;;;;35.10;4.25;;;;;;;;;;4992503;28;99238;-71
2024/01/23 02:23:41;;;;;;;28.13;4.65;;;;;;;;;;4996575;28;99819;-72
2024/01/23 02:26:07;;;;;;;30.40;3.78;;;;;;;;;;4997123;28;98824;-72
2024/01/23 02:28:35;;;;;;;28.75;4.03;;;;;;;;;;4995426;28;99194;-72
2024/01/23 02:31:02;;;;;;;28.67;3.80;;;;;;;;;;5000625;28;100724;-72
2024/01/23 02:33:28;;;;;;;32.13;4.20;;;;;;;;;;4998894;28;99011;-72
2024/01/23 02:35:54;;;;;;;34.33;4.38;;;;;;;;;;5000253;28;99730;-71
2024/01/23 02:38:21;;;;;;;14.32;2.78;;;;;;;;;;4995734;28;99454;-72
2024/01/23 02:40:47;;;;;;;28.30;3.80;;;;;;;;;;5002986;28;98503;-71
2024/01/23 02:43:14;;;;;;;34.00;4.35;;;;;;;;;;4997870;28;99591;-71
2024/01/23 02:45:40;;;;;;;28.27;4.55;;;;;;;;;;5000854;28;98489;-71
2024/01/23 02:48:06;;;;;;;22.42;3.55;;;;;;;;;;5001409;28;99206;-71
2024/01/23 02:50:33;;;;;;;36.58;5.03;;;;;;;;;;5002565;28;99833;-71
2024/01/23 02:52:59;;;;;;;43.22;4.60;;;;;;;;;;4995157;28;98607;-72
2024/01/23 02:55:26;;;;;;;28.80;4.22;;;;;;;;;;4992539;28;99464;-72
2024/01/23 02:57:52;;;;;;;27.55;3.53;;;;;;;;;;4995936;28;101452;-71
2024/01/23 03:00:18;;;;;;;30.00;4.90;;;;;;;;;;4995907;28;98523;-72
2024/01/23 03:02:45;;;;;;;36.33;4.95;;;;;;;;;;5002771;28;99797;-72
2024/01/23 03:05:12;;;;;;;34.55;4.15;;;;;;;;;;5002853;28;98518;-71
2024/01/23 03:07:39;;;;;;;38.70;7.75;;;;;;;;;;4994629;28;99500;-71
2024/01/23 03:10:07;;;;;;;23.35;3.28;;;;;;;;;;5003526;28;99489;-71
2024/01/23 03:12:33;;;;;;;30.77;4.82;;;;;;;;;;5003285;28;97789;-72
2024/01/23 03:15:00;;;;;;;34.55;5.32;;;;;;;;;;4999211;28;98535;-72
2024/01/23 03:17:26;;;;;;;34.83;4.57;;;;;;;;;;4996347;28;99848;-72
2024/01/23 03:19:52;;;;;;;27.75;4.22;;;;;;;;;;4990821;28;99459;-71
2024/01/23 03:22:19;;;;;;;30.40;5.10;;;;;;;;;;5001693;28;99917;-71
2024/01/23 03:24:45;;;;;;;33.08;4.55;;;;;;;;;;5001230;28;101811;-69
2024/01/23 03:27:12;;;;;;;31.63;4.55;;;;;;;;;;4992755;28;99569;-70
2024/01/23 03:29:40;;;;;;;28.05;4.00;;;;;;;;;;4997921;28;100392;-69
2024/01/23 03:32:07;;;;;;;20.88;4.78;;;;;;;;;;4998891;28;98396;-70
2024/01/23 03:34:34;;;;;;;25.73;4.35;;;;;;;;;;4998751;28;99156;-70
2024/01/23 03:37:03;;;;;;;22.25;3.70;;;;;;;;;;5000116;28;99140;-70
2024/01/23 03:39:29;;;;;;;34.20;5.40;;;;;;;;;;4996422;28;98711;-70
2024/01/23 03:41:56;;;;;;;36.17;4.90;;;;;;;;;;4999147;28;99480;-70
2024/01/23 03:44:26;;;;;;;31.05;4.47;;;;;;;;;;5000847;28;100416;-69
2024/01/23 03:46:53;;;;;;;20.55;3.72;;;;;;;;;;5001844;28;98602;-70
2024/01/23 03:49:22;;;;;;;29.50;4.30;;;;;;;;;;4996571;28;99455;-69
2024/01/23 03:51:49;;;;;;;31.98;5.60;;;;;;;;;;4997230;28;98674;-69
2024/01/23 03:54:15;;;;;;;24.83;4.10;;;;;;;;;;5001646;28;99452;-69
2024/01/23 03:56:42;;;;;;;46.40;5.00;;;;;;;;;;4994972;28;99858;-70
2024/01/23 03:59:08;;;;;;;24.08;4.50;;;;;;;;;;4998646;28;98594;-70
2024/01/23 04:01:35;;;;;;;35.38;4.57;;;;;;;;;;5000911;28;99126;-69
2024/01/23 04:04:02;;;;;;;29.27;3.95;;;;;;;;;;4997255;28;99536;-70
2024/01/23 04:06:28;;;;;;;33.97;4.38;;;;;;;;;;5001097;28;98799;-69
2024/01/23 04:08:55;;;;;;;16.98;3.47;;;;;;;;;;5001994;28;99432;-70
2024/01/23 04:11:21;;;;;;;23.27;3.88;;;;;;;;;;5000450;28;98535;-69
2024/01/23 04:13:48;;;;;;;36.83;6.40;;;;;;;;;;4998484;28;99269;-70
2024/01/23 04:16:14;;;;;;;28.90;4.05;;;;;;;;;;4990217;28;99529;-69
2024/01/23 04:18:40;;;;;;;27.40;4.28;;;;;;;;;;4998677;28;98515;-71
2024/01/23 04:21:07;;;;;;;28.30;3.78;;;;;;;;;;4993992;28;99344;-70
2024/01/23 04:23:33;;;;;;;28.50;4.22;;;;;;;;;;5002151;28;99908;-69
2024/01/23 04:26:00;;;;;;;28.80;4.65;;;;;;;;;;5001123;28;98113;-71
2024/01/23 04:28:26;;;;;;;25.02;4.35;;;;;;;;;;4998970;28;101789;-70
2024/01/23 04:30:53;;;;;;;31.67;4.13;;;;;;;;;;5000186;28;98454;-70
2024/01/23 04:33:19;;;;;;;21.27;4.00;;;;;;;;;;4995721;28;99225;-70
2024/01/23 04:35:46;;;;;;;34.45;4.50;;;;;;;;;;5000959;28;99473;-69
2024/01/23 04:38:12;;;;;;;32.08;5.13;;;;;;;;;;5000205;28;98483;-70
2024/01/23 04:40:39;;;;;;;21.83;3.38;;;;;;;;;;5003743;28;99615;-69
2024/01/23 04:43:05;;;;;;;29.70;4.32;;;;;;;;;;4998237;28;99515;-70
2024/01/23 04:45:31;;;;;;;31.70;3.67;;;;;;;;;;5000374;28;98783;-70
2024/01/23 04:47:58;;;;;;;30.55;4.57;;;;;;;;;;4997724;28;99266;-70
2024/01/23 04:50:24;;;;;;;25.73;4.25;;;;;;;;;;4995271;28;99129;-70
2024/01/23 04:52:56;;;;;;;26.38;3.33;;;;;;;;;;4997765;28;98452;-70
2024/01/23 04:55:23;;;;;;;32.20;4.57;;;;;;;;;;4990582;28;99824;-69
2024/01/23 04:57:49;;;;;;;30.00;4.72;;;;;;;;;;4998019;28;99400;-69
2024/01/23 05:00:17;;;;;;;29.33;3.53;;;;;;;;;;4994402;28;99911;-70
2024/01/23 05:02:44;;;;;;;26.98;3.40;;;;;;;;;;4999168;28;99937;-69
2024/01/23 05:05:10;;;;;;;35.03;4.45;;;;;;;;;;4997555;28;98841;-69
2024/01/23 05:07:37;;;;;;;28.13;4.38;;;;;;;;;;4995519;28;99505;-69
2024/01/23 05:10:04;;;;;;;30.02;6.03;;;;;;;;;;4997904;28;99815;-70
2024/01/23 05:12:31;;;;;;;30.40;5.68;;;;;;;;;;5004650;28;98672;-70
2024/01/23 05:14:57;;;;;;;31.83;5.90;;;;;;;;;;4991467;28;99139;-70
2024/01/23 05:17:23;;;;;;;29.48;4.55;;;;;;;;;;4994466;28;98614;-69
2024/01/23 05:19:50;;;;;;;24.98;4.13;;;;;;;;;;4998091;28;99184;-70
2024/01/23 05:22:16;;;;;;;33.90;3.97;;;;;;;;;;4993531;28;100224;-69
2024/01/23 05:24:43;;;;;;;20.35;3.35;;;;;;;;;;4996996;28;98544;-69
2024/01/23 05:27:09;;;;;;;35.83;3.80;;;;;;;;;;4996196;28;99733;-70
2024/01/23 05:29:35;;;;;;;34.72;5.68;;;;;;;;;;4997991;28;99542;-69
2024/01/23 05:32:02;;;;;;;29.30;4.47;;;;;;;;;;4997364;28;98606;-69
2024/01/23 05:34:28;;;;;;;34.50;4.78;;;;;;;;;;5001643;28;99446;-69
2024/01/23 05:36:55;;;;;;;30.35;4.05;;;;;;;;;;4992876;28;98590;-69
2024/01/23 05:39:21;;;;;;;29.38;5.65;;;;;;;;;;4996090;28;99247;-69
2024/01/23 05:41:48;;;;;;;35.55;5.93;;;;;;;;;;4989501;28;104133;-70
2024/01/23 05:44:14;;;;;;;34.92;4.82;;;;;;;;;;4996504;28;98566;-71
2024/01/23 05:46:40;;;;;;;31.80;5.18;;;;;;;;;;4997434;28;99508;-71
2024/01/23 05:49:07;;;;;;;34.67;4.03;;;;;;;;;;4997514;28;99530;-71
2024/01/23 05:51:33;;;;;;;36.97;5.13;;;;;;;;;;4994750;28;98566;-71
2024/01/23 05:54:00;;;;;;;32.33;4.80;;;;;;;;;;4993144;28;99153;-72
2024/01/23 05:56:26;;;;;;;40.17;6.57;;;;;;;;;;4999198;28;99698;-71
2024/01/23 05:58:52;;;;;;;40.60;5.90;;;;;;;;;;4989781;28;99189;-71
2024/01/23 06:01:19;;;;;;;30.25;7.18;;;;;;;;;;4995627;28;100565;-71
2024/01/23 06:03:45;;;;;;;41.83;9.35;;;;;;;;;;4997024;28;98192;-71
2024/01/23 06:06:11;;;;;;;28.20;4.32;;;;;;;;;;4995375;28;98930;-71
2024/01/23 06:08:38;;;;;;;31.95;5.90;;;;;;;;;;4997356;28;99875;-72
2024/01/23 06:11:04;;;;;;;38.22;5.15;;;;;;;;;;4994460;28;100450;-71
2024/01/23 06:13:31;;;;;;;29.70;4.63;;;;;;;;;;4995271;28;99963;-71
2024/01/23 06:15:57;;;;;;;46.75;7.78;;;;;;;;;;4993185;28;99730;-71
2024/01/23 06:18:23;;;;;;;37.00;5.60;;;;;;;;;;4999015;28;98696;-71
2024/01/23 06:20:50;;;;;;;39.85;6.13;;;;;;;;;;4995037;28;100816;-71
2024/01/23 06:23:16;;;;;;;29.50;4.57;;;;;;;;;;4994768;28;98729;-71
2024/01/23 06:25:43;;;;;;;35.28;5.32;;;;;;;;;;4993391;28;99259;-71
2024/01/23 06:28:09;;;;;;;26.88;4.85;;;;;;;;;;4996085;28;98844;-72
2024/01/23 06:30:35;;;;;;;32.05;4.13;;;;;;;;;;4992962;28;98527;-71
2024/01/23 06:33:03;;;;;;;35.17;4.75;;;;;;;;;;4992847;28;99159;-71
2024/01/23 06:35:30;;;;;;;35.08;5.32;;;;;;;;;;4992646;28;100307;-71
2024/01/23 06:37:56;;;;;;;26.77;4.32;;;;;;;;;;4999853;28;98929;-71
2024/01/23 06:40:23;;;;;;;36.13;5.32;;;;;;;;;;4995316;28;99819;-71
2024/01/23 06:42:49;;;;;;;33.83;4.57;;;;;;;;;;4995284;28;98588;-72
2024/01/23 06:45:16;;;;;;;27.92;4.70;;;;;;;;;;4992795;28;99488;-72
2024/01/23 06:47:42;;;;;;;32.47;7.97;;;;;;;;;;4995161;28;98466;-71
2024/01/23 06:50:08;;;;;;;29.77;6.00;;;;;;;;;;4998658;28;99460;-71
2024/01/23 06:52:35;;;;;;;31.83;4.97;;;;;;;;;;4994511;28;100078;-71
2024/01/23 06:55:01;;;;;;;39.88;5.45;;;;;;;;;;4997630;28;99471;-71
2024/01/23 06:57:28;;;;;;;29.58;4.18;;;;;;;;;;4992810;28;98606;-71
2024/01/23 06:59:54;;;;;;;32.47;4.72;;;;;;;;;;5002856;28;99326;-72
2024/01/23 07:02:21;;;;;;;30.25;4.28;;;;;;;;;;4994708;28;98519;-72
2024/01/23 07:04:47;;;;;;;31.73;4.75;;;;;;;;;;4997035;28;99565;-71
2024/01/23 07:07:14;;;;;;;34.92;4.72;;;;;;;;;;4991777;28;99869;-71
2024/01/23 07:09:40;;;;;;;28.90;4.72;;;;;;;;;;4997725;28;98746;-71
2024/01/23 07:12:07;;;;;;;33.40;4.47;;;;;;;;;;4997839;28;99606;-71
2024/01/23 07:14:33;;;;;;;26.95;5.53;;;;;;;;;;4998448;28;99816;-71
2024/01/23 07:17:00;;;;;;;36.00;4.72;;;;;;;;;;4999211;28;97869;-71
2024/01/23 07:19:26;;;;;;;43.63;5.07;;;;;;;;;;5000031;28;99546;-72
2024/01/23 07:21:53;;;;;;;28.60;4.82;;;;;;;;;;4999027;28;99385;-71
2024/01/23 07:24:19;;;;;;;42.60;5.63;;;;;;;;;;5000107;28;99244;-71
2024/01/23 07:26:46;;;;;;;42.92;6.03;;;;;;;;;;4983443;28;100673;-72
2024/01/23 07:29:12;;;;;;;27.10;6.03;;;;;;;;;;4996667;28;98875;-74
2024/01/23 07:31:39;;;;;;;24.58;4.43;;;;;;;;;;4995019;28;99600;-75
2024/01/23 07:34:07;;;;;;;37.85;4.72;;;;;;;;;;4999219;28;99576;-74
2024/01/23 07:36:33;;;;;;;37.03;4.95;;;;;;;;;;4994655;28;98554;-75
2024/01/23 07:39:00;;;;;;;33.13;4.45;;;;;;;;;;4993267;28;99417;-74
2024/01/23 07:41:27;;;;;;;31.52;4.22;;;;;;;;;;4997793;28;99540;-74
2024/01/23 07:43:53;;;;;;;26.65;3.92;;;;;;;;;;4999724;28;98971;-74
2024/01/23 07:46:21;;;;;;;41.47;5.13;;;;;;;;;;4999448;28;99601;-74
2024/01/23 07:48:47;;;;;;;36.22;5.63;;;;;;;;;;4992812;28;101123;-74
2024/01/23 07:51:13;;;;;;;37.80;5.53;;;;;;;;;;5002354;28;101263;-74
2024/01/23 07:53:42;;;;;;;41.03;5.50;;;;;;;;;;4996237;28;99411;-74
2024/01/23 07:56:09;;;;;;;43.80;6.05;;;;;;;;;;4998350;28;98610;-74
2024/01/23 07:58:35;;;;;;;34.03;4.88;;;;;;;;;;4996458;28;99473;-74
2024/01/23 08:01:02;;;;;;;38.20;5.10;;;;;;;;;;4995005;28;99508;-74
2024/01/23 08:03:28;;;;;;;36.35;5.00;;;;;;;;;;4998596;28;98756;-74
2024/01/23 08:05:55;;;;;;;32.03;3.78;;;;;;;;;;4999901;28;99458;-71
2024/01/23 08:08:23;;;;;;;35.15;4.85;;;;;;;;;;4999030;28;98700;-70
2024/01/23 08:10:51;;;;;;;23.27;5.63;;;;;;;;;;4991760;28;99214;-71
2024/01/23 08:13:20;;;;;;;33.03;4.15;;;;;;;;;;4997955;28;100713;-70
2024/01/23 08:15:47;;;;;;;35.47;5.30;;;;;;;;;;4993506;28;99493;-72
2024/01/23 08:18:14;;;;;;;34.47;5.80;;;;;;;;;;4998704;28;99359;-71
2024/01/23 08:20:41;;;;;;;35.95;5.03;;;;;;;;;;4996567;28;102809;-71
2024/01/23 08:23:07;;;;;;;33.20;5.85;;;;;;;;;;4996108;28;99623;-70
2024/01/23 08:25:34;;;;;;;44.75;6.03;;;;;;;;;;4998925;28;99204;-69
2024/01/23 08:28:00;;;;;;;46.45;5.53;;;;;;;;;;4993555;28;98527;-70
2024/01/23 08:30:27;;;;;;;41.42;5.25;;;;;;;;;;4997256;28;99187;-69
2024/01/23 08:32:54;;;;;;;37.40;5.05;;;;;;;;;;4999661;28;100222;-69
2024/01/23 08:35:20;;;;;;;38.83;3.95;;;;;;;;;;4992819;28;98693;-69
2024/01/23 08:37:46;;;;;;;33.15;6.13;;;;;;;;;;4997383;28;99770;-69
2024/01/23 08:40:15;;;;;;;34.17;4.97;;;;;;;;;;4991107;28;99492;-71
2024/01/23 08:42:41;;;;;;;38.55;5.47;;;;;;;;;;4995823;28;98628;-70
2024/01/23 08:45:08;;;;;;;43.88;4.75;;;;;;;;;;5002753;28;99488;-70
2024/01/23 08:47:34;;;;;;;25.80;4.22;;;;;;;;;;5000700;28;99692;-70
2024/01/23 08:50:01;;;;;;;35.95;4.93;;;;;;;;;;4995173;28;99310;-70
2024/01/23 08:52:28;;;;;;;39.17;5.72;;;;;;;;;;4996526;28;99354;-71
2024/01/23 08:54:54;;;;;;;32.97;4.82;;;;;;;;;;5000235;28;97862;-70
2024/01/23 08:57:22;;;;;;;35.85;5.38;;;;;;;;;;5001113;28;98783;-72
2024/01/23 08:59:49;;;;;;;32.38;4.75;;;;;;;;;;4996800;28;99470;-72
2024/01/23 09:02:15;;;;;;;36.28;5.40;;;;;;;;;;4989730;28;99364;-71
2024/01/23 09:04:42;;;;;;;33.15;4.40;;;;;;;;;;4999193;28;99942;-71
2024/01/23 09:07:08;;;;;;;33.17;5.57;;;;;;;;;;4998135;28;99897;-71
2024/01/23 09:09:35;;;;;;;24.90;5.07;;;;;;;;;;5000755;28;98838;-73
2024/01/23 09:12:01;;;;;;;35.63;6.22;;;;;;;;;;4992751;28;99080;-70
2024/01/23 09:14:28;;;;;;;37.72;5.45;;;;;;;;;;4996700;28;98537;-70
2024/01/23 09:16:54;;;;;;;34.25;4.85;;;;;;;;;;4990006;28;100795;-74
2024/01/23 09:19:21;;;;;;;27.52;5.35;;;;;;;;;;5000780;28;98812;-75
2024/01/23 09:21:47;;;;;;;28.23;5.00;;;;;;;;;;4998206;28;98535;-74
2024/01/23 09:24:15;;;;;;;34.10;5.60;;;;;;;;;;4995764;28;100590;-75
2024/01/23 09:26:41;;;;;;;34.85;6.32;;;;;;;;;;4994410;28;100318;-75
2024/01/23 09:29:08;;;;;;;34.53;6.90;;;;;;;;;;4999364;28;98605;-74
2024/01/23 09:31:42;;;;;;;31.92;6.47;;;;;;;;;;5000279;28;99483;-75
2024/01/23 09:34:08;;;;;;;35.05;6.43;;;;;;;;;;4996511;28;98693;-75
2024/01/23 09:36:35;;;;;;;37.97;5.88;;;;;;;;;;4992037;28;99888;-75
2024/01/23 09:39:01;;;;;;;32.22;5.60;;;;;;;;;;4996624;28;99562;-75
2024/01/23 09:41:28;;;;;;;26.90;4.90;;;;;;;;;;5000885;28;98643;-75
2024/01/23 09:43:55;;;;;;;32.15;5.90;;;;;;;;;;4997336;28;99293;-75
2024/01/23 09:46:23;;;;;;;19.65;4.18;;;;;;;;;;4993958;28;99510;-75
2024/01/23 09:48:50;;;;;;;32.63;6.15;;;;;;;;;;4996715;28;98577;-76
2024/01/23 09:51:17;;;;;;;32.03;6.03;;;;;;;;;;4995086;28;99565;-76
2024/01/23 09:53:44;;;;;;;33.75;5.55;;;;;;;;;;4997163;28;99618;-76
2024/01/23 09:56:11;;;;;;;37.63;5.63;;;;;;;;;;4996590;28;99194;-76
2024/01/23 09:58:37;;;;;;;23.48;5.10;;;;;;;;;;4997536;28;99891;-75
2024/01/23 10:01:04;;;;;;;28.55;5.72;;;;;;;;;;4995176;28;98632;-75
2024/01/23 10:03:33;;;;;;;29.85;5.88;;;;;;;;;;4987295;28;99641;-74
2024/01/23 10:06:03;;;;;;;40.35;6.30;;;;;;;;;;4991715;28;99472;-74
2024/01/23 10:08:30;;;;;;;31.25;5.85;;;;;;;;;;4988467;28;97790;-74
2024/01/23 10:10:59;;;;;;;33.05;5.65;;;;;;;;;;4995889;28;100802;-73
2024/01/23 10:13:29;;;;;;;30.65;5.53;;;;;;;;;;4995332;28;99768;-72
2024/01/23 10:15:55;;;;;;;35.80;5.15;;;;;;;;;;4994334;28;99247;-74
2024/01/23 10:18:22;;;;;;;34.63;6.45;;;;;;;;;;4990716;28;99136;-73
2024/01/23 10:20:52;;;;;;;;;;;;;;;;;;4994055;28;99813;-74
2024/01/23 10:23:19;;;;;;;26.00;5.28;;;;;;;;;;4995427;28;130163;-76
2024/01/23 10:25:45;;;;;;;23.10;4.95;;;;;;;;;;4998040;28;99486;-72
2024/01/23 10:28:13;;;;;;;24.92;5.70;;;;;;;;;;4996856;28;98630;-71
2024/01/23 10:30:40;;;;;;;21.83;5.15;;;;;;;;;;4993113;28;99519;-72
2024/01/23 10:33:08;;;;;;;24.80;5.28;;;;;;;;;;4994094;28;101673;-71
2024/01/23 10:35:34;;;;;;;24.60;5.70;;;;;;;;;;4999644;28;98569;-73
2024/01/23 10:38:10;;;;;;;22.83;5.18;;;;;;;;;;4997902;28;100137;-71
2024/01/23 10:40:37;;;;;;;26.13;5.45;;;;;;;;;;4991911;28;99659;-71
2024/01/23 10:43:05;;;;;;;25.83;5.47;;;;;;;;;;4999716;28;101411;-70
2024/01/23 10:45:32;;;;;;;32.30;5.93;;;;;;;;;;4989941;28;99607;-71
2024/01/23 10:48:01;;;;;;;28.27;5.53;;;;;;;;;;4997001;28;98872;-70
2024/01/23 10:50:29;;;;;;;32.35;5.55;;;;;;;;;;4997820;28;99292;-70
2024/01/23 10:53:00;;;;;;;24.90;5.50;;;;;;;;;;4999803;28;99674;-70
2024/01/23 10:55:26;;;;;;;;;;;;;;;;;;5002362;28;98746;-70
2024/01/23 10:57:54;;;;;;;32.33;5.75;;;;;;;;;;5004145;28;127815;-71
2024/01/23 11:00:22;;;;;;;31.02;5.40;;;;;;;;;;4997257;28;100107;-70
2024/01/23 11:02:56;;;;;;;37.80;6.15;;;;;;;;;;5000487;28;99407;-70
2024/01/23 11:05:37;;;;;;;34.28;6.10;;;;;;;;;;4998175;28;100231;-71
2024/01/23 11:08:07;;;;;;;24.10;5.03;;;;;;;;;;4998231;28;98538;-70
2024/01/23 11:10:43;;;;;;;28.27;4.88;;;;;;;;;;4996598;28;99258;-71
2024/01/23 11:13:26;;;;;;;31.63;5.95;;;;;;;;;;4996980;28;99807;-70
2024/01/23 11:15:52;;;;;;;29.73;5.32;;;;;;;;;;4999779;28;98566;-71
2024/01/23 11:18:26;;;;;;;28.23;5.68;;;;;;;;;;4997384;28;99432;-70
2024/01/23 11:21:05;;;;;;;28.65;4.72;;;;;;;;;;5002170;28;100618;-69
2024/01/23 11:23:33;;;;;;;28.00;5.45;;;;;;;;;;4999454;28;99221;-70
2024/01/23 11:26:12;;;;;;;26.10;5.00;;;;;;;;;;5000639;28;99701;-69
2024/01/23 11:28:39;;;;;;;29.58;5.20;;;;;;;;;;4994556;28;98856;-69
2024/01/23 11:31:05;;;;;;;26.58;5.38;;;;;;;;;;5002215;28;99776;-69
2024/01/23 11:33:34;;;;;;;24.77;5.00;;;;;;;;;;5000345;28;99755;-70
2024/01/23 11:36:07;;;;;;;27.10;4.60;;;;;;;;;;4999204;28;98973;-74
2024/01/23 11:38:45;;;;;;;26.23;4.95;;;;;;;;;;4998308;28;99167;-74
2024/01/23 11:41:22;;;;;;;32.38;5.18;;;;;;;;;;4996955;28;99484;-74
2024/01/23 11:44:03;;;;;;;30.02;5.47;;;;;;;;;;5001241;28;98639;-74
2024/01/23 11:46:30;;;;;;;23.95;5.18;;;;;;;;;;5000655;28;99520;-74
2024/01/23 11:48:56;;;;;;;28.83;5.25;;;;;;;;;;4996623;28;97919;-75
2024/01/23 11:51:24;;;;;;;28.73;5.07;;;;;;;;;;4999445;28;98576;-74
2024/01/23 11:53:55;;;;;;;22.58;4.82;;;;;;;;;;5002111;28;100746;-73
2024/01/23 11:56:22;;;;;;;29.90;5.35;;;;;;;;;;4996253;28;99300;-74
2024/01/23 11:58:48;;;;;;;24.60;5.10;;;;;;;;;;5000577;28;99935;-76
2024/01/23 12:01:15;;;;;;;26.15;4.10;;;;;;;;;;4996944;28;99793;-75
2024/01/23 12:03:46;;;;;;;23.02;4.55;;;;;;;;;;4997227;28;99010;-74
2024/01/23 12:06:13;;;;;;;19.35;4.20;;;;;;;;;;5002872;28;99221;-74
2024/01/23 12:08:40;;;;;;;28.67;5.05;;;;;;;;;;4998983;28;98589;-76
2024/01/23 12:11:07;;;;;;;26.42;4.80;;;;;;;;;;5002125;28;99294;-76
2024/01/23 12:13:36;;;;;;;28.38;3.97;;;;;;;;;;4994722;28;98940;-76
2024/01/23 12:16:02;;;;;;;35.92;5.25;;;;;;;;;;5000927;28;98882;-75
2024/01/23 12:18:28;;;;;;;28.27;5.15;;;;;;;;;;4992570;28;100131;-74
2024/01/23 12:20:57;;;;;;;30.38;4.75;;;;;;;;;;5002527;28;100203;-75
2024/01/23 12:23:25;;;;;;;16.85;4.00;;;;;;;;;;4990113;28;98526;-76
2024/01/23 12:25:51;;;;;;;26.15;4.90;;;;;;;;;;4995333;28;101571;-76
2024/01/23 12:28:18;;;;;;;17.55;4.53;;;;;;;;;;5001586;28;100241;-76
2024/01/23 12:30:44;;;;;;;23.17;4.55;;;;;;;;;;4988336;28;99228;-74
2024/01/23 12:33:14;;;;;;;30.45;4.97;;;;;;;;;;4993848;28;99959;-74
2024/01/23 12:35:41;;;;;;;22.25;5.25;;;;;;;;;;5001325;28;99994;-76
2024/01/23 12:38:08;;;;;;;24.52;5.63;;;;;;;;;;4994248;28;99246;-77
2024/01/23 12:40:35;;;;;;;19.10;4.93;;;;;;;;;;4992728;28;100131;-76
2024/01/23 12:43:02;;;;;;;27.75;5.82;;;;;;;;;;4995054;28;98626;-76
2024/01/23 12:45:28;;;;;;;30.52;5.10;;;;;;;;;;4999011;28;99455;-76
2024/01/23 12:47:59;;;;;;;24.60;5.10;;;;;;;;;;4997289;28;100028;-75
2024/01/23 12:50:26;;;;;;;27.95;4.97;;;;;;;;;;4997201;28;99389;-76
2024/01/23 12:52:53;;;;;;;36.08;5.60;;;;;;;;;;4994638;28;99429;-75
2024/01/23 12:55:20;;;;;;;22.75;5.43;;;;;;;;;;4998815;28;98629;-74
2024/01/23 12:57:47;;;;;;;25.73;4.95;;;;;;;;;;5000831;28;99177;-75
2024/01/23 13:00:14;;;;;;;25.30;4.78;;;;;;;;;;4993437;28;99544;-75
2024/01/23 13:02:41;;;;;;;29.52;5.50;;;;;;;;;;4996167;28;97788;-75
2024/01/23 13:05:08;;;;;;;29.67;5.75;;;;;;;;;;4996226;28;98707;-75
2024/01/23 13:07:36;;;;;;;24.88;4.53;;;;;;;;;;5000101;28;100524;-75
2024/01/23 13:10:04;;;;;;;33.55;4.93;;;;;;;;;;4997412;28;99416;-74
2024/01/23 13:12:33;;;;;;;25.75;4.68;;;;;;;;;;4999814;28;99663;-75
2024/01/23 13:15:00;;;;;;;36.10;5.50;;;;;;;;;;4997843;28;98937;-75
2024/01/23 13:17:27;;;;;;;31.02;5.05;;;;;;;;;;4996666;28;99204;-75
2024/01/23 13:19:53;;;;;;;27.55;4.53;;;;;;;;;;5000932;28;99866;-75
2024/01/23 13:22:20;;;;;;;26.27;5.32;;;;;;;;;;4995184;28;98699;-75
2024/01/23 13:24:50;;;;;;;33.53;5.78;;;;;;;;;;4999644;28;99691;-75
2024/01/23 13:27:16;;;;;;;41.17;5.75;;;;;;;;;;5000609;28;98044;-74
2024/01/23 13:29:44;;;;;;;45.45;6.38;;;;;;;;;;4994849;28;100033;-74
2024/01/23 13:32:11;;;;;;;37.85;6.03;;;;;;;;;;4999215;28;99193;-74
2024/01/23 13:34:37;;;;;;;31.45;4.82;;;;;;;;;;4993351;28;101167;-75
2024/01/23 13:37:04;;;;;;;44.88;5.85;;;;;;;;;;5000715;28;103535;-74
2024/01/23 13:39:31;;;;;;;35.75;5.22;;;;;;;;;;4997705;28;99497;-74
2024/01/23 13:41:57;;;;;;;33.63;5.22;;;;;;;;;;4994985;28;98526;-74
2024/01/23 13:44:23;;;;;;;36.70;5.50;;;;;;;;;;4994480;28;99178;-74
2024/01/23 13:46:50;;;;;;;42.50;6.40;;;;;;;;;;4992714;28;101629;-75
2024/01/23 13:49:16;;;;;;;40.35;6.85;;;;;;;;;;4999246;28;98672;-75
2024/01/23 13:51:44;;;;;;;35.83;4.63;;;;;;;;;;4997035;28;99109;-74
2024/01/23 13:54:11;;;;;;;38.42;6.30;;;;;;;;;;5001052;28;99800;-74
2024/01/23 13:56:38;;;;;;;35.20;5.57;;;;;;;;;;4993459;28;99260;-69
2024/01/23 13:59:04;;;;;;;37.33;5.22;;;;;;;;;;4999961;28;100171;-69
2024/01/23 14:01:35;;;;;;;38.35;5.78;;;;;;;;;;4995663;28;98701;-69
2024/01/23 14:04:03;;;;;;;42.30;6.05;;;;;;;;;;4999678;28;99556;-71
2024/01/23 14:06:29;;;;;;;33.95;5.63;;;;;;;;;;4994479;28;100190;-70
2024/01/23 14:08:56;;;;;;;38.15;5.43;;;;;;;;;;4990475;28;98543;-71
2024/01/23 14:11:23;;;;;;;37.95;5.82;;;;;;;;;;4993337;28;99472;-71
2024/01/23 14:13:49;;;;;;;31.65;5.75;;;;;;;;;;4997097;28;99997;-71
2024/01/23 14:16:16;;;;;;;30.48;6.57;;;;;;;;;;5001169;28;97930;-70
2024/01/23 14:18:42;;;;;;;42.63;7.25;;;;;;;;;;4987548;28;100490;-69
2024/01/23 14:21:11;;;;;;;43.50;6.95;;;;;;;;;;4998122;28;98652;-69
2024/01/23 14:23:40;;;;;;;40.38;5.75;;;;;;;;;;4995044;28;99634;-69
2024/01/23 14:26:06;;;;;;;43.67;6.80;;;;;;;;;;4997666;28;99629;-69
2024/01/23 14:28:33;;;;;;;42.38;6.05;;;;;;;;;;4998636;28;98882;-69